Why, Arizona
Current Conditions -  °F | °C
As of 2:55 PM on Wednesday 22 Oct 2014 (Local Time) from KGXF Reporting Station
Clear Clear  
Wind Chill: 33°   Ceiling: Unl
Heat Index: 33°   Visibility: 10mi
Dew Point:   Wind: 7mph
Humidity: 17%   Direction: NA
Pressure: 29.9"   Gusts: NA
Location:  32.5298°N, 112.879°W
Report Text: KGXF 222155Z VRB06KT 10SM CLR 33/05 A2990 RMK SLP112
Loading
Personal Weather Stations






























Interactive Weather Map
Tropical Storm Tracking
New forecast layout! Learn more

10-Day Weather Forecast

Advertisements
Track Severe Weather on mobile